createdAt,value
2023-12-16T00:01:48.097Z,5.83
2023-12-16T00:07:05.956Z,5.82
2023-12-16T00:12:24.649Z,5.82
2023-12-16T00:17:44.168Z,5.8
2023-12-16T00:23:03.147Z,5.8
2023-12-16T00:28:22.208Z,5.82
2023-12-16T00:33:41.896Z,5.82
2023-12-16T00:39:01.265Z,5.79
2023-12-16T00:44:20.099Z,5.82
2023-12-16T00:49:39.071Z,5.82
2023-12-16T00:54:58.980Z,5.79
2023-12-16T01:00:17.433Z,5.79
2023-12-16T01:05:36.818Z,5.8
2023-12-16T01:10:56.515Z,5.8
2023-12-16T01:16:15.335Z,5.8
2023-12-16T01:21:34.556Z,5.8
2023-12-16T01:26:53.815Z,5.79
2023-12-16T01:32:13.123Z,5.79
2023-12-16T01:37:32.998Z,5.79
2023-12-16T01:42:51.175Z,5.79
2023-12-16T01:48:10.895Z,5.78
2023-12-16T01:53:29.948Z,5.76
2023-12-16T01:58:48.805Z,5.78
2023-12-16T02:04:08.528Z,5.76
2023-12-16T02:09:27.585Z,5.75
2023-12-16T02:14:47.179Z,5.76
2023-12-16T02:20:06.812Z,5.76
2023-12-16T02:25:25.956Z,5.73
2023-12-16T02:30:44.897Z,5.7
2023-12-16T02:36:04.375Z,5.7
2023-12-16T02:41:23.880Z,5.73
2023-12-16T02:42:27.797Z,5.78
2023-12-16T02:47:18.247Z,5.72
2023-12-16T02:52:37.433Z,5.68
2023-12-16T02:57:56.712Z,5.7
2023-12-16T03:03:15.605Z,5.68
2023-12-16T03:08:34.822Z,5.68
2023-12-16T03:13:54.234Z,5.68
2023-12-16T03:19:12.955Z,5.68
2023-12-16T03:24:32.330Z,5.68
2023-12-16T03:29:51.945Z,5.69
2023-12-16T03:35:11.505Z,5.65
2023-12-16T03:40:30.303Z,5.68
2023-12-16T03:45:49.688Z,5.68
2023-12-16T03:51:08.994Z,5.66
2023-12-16T03:56:28.613Z,5.68
2023-12-16T04:01:48.121Z,5.63
2023-12-16T04:07:06.711Z,5.65
2023-12-16T04:12:26.008Z,5.66
2023-12-16T04:17:45.852Z,5.68
2023-12-16T04:23:04.632Z,5.65
2023-12-16T04:28:23.541Z,5.66
2023-12-16T04:33:42.645Z,5.63
2023-12-16T04:39:01.903Z,5.65
2023-12-16T04:44:20.300Z,5.63
2023-12-16T04:49:39.072Z,5.62
2023-12-16T04:54:58.511Z,5.63
2023-12-16T05:00:18.497Z,5.65
2023-12-16T05:05:37.738Z,5.62
2023-12-16T05:10:56.745Z,5.65
2023-12-16T05:16:15.784Z,5.63
2023-12-16T05:21:35.245Z,5.63
2023-12-16T05:26:54.531Z,5.65
2023-12-16T05:32:14.456Z,5.66
2023-12-16T05:37:33.278Z,5.63
2023-12-16T05:42:52.371Z,5.62
2023-12-16T05:48:12.161Z,5.65
2023-12-16T05:53:31.396Z,5.63
2023-12-16T05:58:50.746Z,5.65
2023-12-16T06:04:10.183Z,5.63
2023-12-16T06:09:29.314Z,5.62
2023-12-16T06:14:48.672Z,5.62
2023-12-16T06:20:07.591Z,5.63
2023-12-16T06:25:26.659Z,5.65
2023-12-16T06:30:46.082Z,5.62
2023-12-16T06:36:06.049Z,5.62
2023-12-16T06:41:24.322Z,5.6
2023-12-16T06:46:44.069Z,5.6
2023-12-16T06:52:03.125Z,5.62
2023-12-16T06:57:22.614Z,5.6
2023-12-16T07:02:42.358Z,5.6
2023-12-16T07:08:01.363Z,5.6
2023-12-16T07:13:20.353Z,5.6
2023-12-16T07:18:40.062Z,5.6
2023-12-16T07:23:59.137Z,5.59
2023-12-16T07:29:17.925Z,5.59
2023-12-16T07:34:37.419Z,5.59
2023-12-16T07:39:57.052Z,5.59
2023-12-16T07:45:16.701Z,5.59
2023-12-16T07:50:35.229Z,5.58
2023-12-16T07:55:54.200Z,5.58
2023-12-16T08:01:13.834Z,5.59
2023-12-16T08:06:34.089Z,5.58
2023-12-16T08:11:52.612Z,5.6
2023-12-16T08:17:12.539Z,5.58
2023-12-16T08:22:31.807Z,5.6
2023-12-16T08:27:50.400Z,5.6
2023-12-16T08:33:09.528Z,5.62
2023-12-16T08:38:28.423Z,5.63
2023-12-16T08:43:48.077Z,5.62
2023-12-16T08:49:07.002Z,5.63
2023-12-16T08:54:25.848Z,5.65
2023-12-16T08:59:45.499Z,5.66
2023-12-16T09:05:04.646Z,5.68
2023-12-16T09:10:23.908Z,5.69
2023-12-16T09:15:42.353Z,5.69
2023-12-16T09:21:01.669Z,5.72
2023-12-16T09:26:20.805Z,5.75
2023-12-16T09:31:39.868Z,5.76
2023-12-16T09:36:58.455Z,5.79
2023-12-16T09:42:19.632Z,5.82
2023-12-16T09:47:36.809Z,5.82
2023-12-16T09:52:55.801Z,5.86
2023-12-16T09:58:15.533Z,5.9
2023-12-16T10:03:34.557Z,5.93
2023-12-16T10:08:53.409Z,5.96
2023-12-16T10:14:14.154Z,6
2023-12-16T10:24:50.980Z,6.06
2023-12-16T10:35:29.009Z,6.13
2023-12-16T10:40:48.685Z,6.16
2023-12-16T10:46:08.745Z,6.22
2023-12-16T10:51:27.242Z,6.24
2023-12-16T10:56:46.550Z,6.29
2023-12-16T11:02:05.825Z,6.33
2023-12-16T11:07:24.632Z,6.37
2023-12-16T11:12:44.229Z,6.4
2023-12-16T11:18:03.721Z,6.46
2023-12-16T11:23:23.129Z,6.51
2023-12-16T11:28:42.021Z,6.54
2023-12-16T11:34:01.460Z,6.58
2023-12-16T11:39:20.150Z,6.63
2023-12-16T11:49:57.928Z,6.73
2023-12-16T11:55:17.212Z,6.77
2023-12-16T12:00:36.613Z,6.83
2023-12-16T12:05:56.171Z,6.85
2023-12-16T12:16:35.588Z,6.88
2023-12-16T12:21:54.519Z,6.95
2023-12-16T12:27:13.836Z,6.98
2023-12-16T12:32:33.062Z,6.98
2023-12-16T12:37:51.796Z,6.99
2023-12-16T12:48:29.681Z,7.02
2023-12-16T12:59:56.039Z,7.04
2023-12-16T13:04:27.150Z,7.02
2023-12-16T13:09:45.841Z,7.04
2023-12-16T13:15:05.150Z,7.04
2023-12-16T13:20:24.310Z,7.02
2023-12-16T13:31:04.869Z,7.02
2023-12-16T13:36:31.920Z,7.02
2023-12-16T13:41:41.637Z,7.01
2023-12-16T13:47:02.064Z,6.99
2023-12-16T13:52:20.171Z,6.99
2023-12-16T13:57:39.948Z,6.97
2023-12-16T14:02:59.681Z,6.95
2023-12-16T14:08:18.299Z,6.95
2023-12-16T14:13:38.123Z,6.95
2023-12-16T14:18:56.817Z,6.98
2023-12-16T14:24:16.135Z,6.95
2023-12-16T14:29:35.381Z,6.91
2023-12-16T14:34:54.903Z,6.94
2023-12-16T14:40:14.580Z,6.92
2023-12-16T14:45:33.798Z,6.88
2023-12-16T14:56:11.998Z,6.85
2023-12-16T15:12:10.662Z,6.77
2023-12-16T15:22:49.398Z,6.71
2023-12-16T15:28:08.566Z,6.64
2023-12-16T15:33:28.294Z,6.63
2023-12-16T15:38:46.614Z,6.6
2023-12-16T15:44:06.235Z,6.54
2023-12-16T16:00:03.408Z,6.44
2023-12-16T16:05:24.868Z,6.38
2023-12-16T16:10:41.935Z,6.33
2023-12-16T16:16:00.958Z,6.32
2023-12-16T16:21:20.675Z,6.26
2023-12-16T16:26:40.537Z,6.23
2023-12-16T16:31:59.756Z,6.16
2023-12-16T16:37:19.148Z,6.12
2023-12-16T16:47:58.031Z,6.05
2023-12-16T16:53:17.526Z,5.99
2023-12-16T16:58:36.802Z,5.96
2023-12-16T17:03:56.778Z,5.92
2023-12-16T17:09:16.249Z,5.85
2023-12-16T17:14:35.423Z,5.82
2023-12-16T17:19:54.552Z,5.75
2023-12-16T17:25:13.191Z,5.72
2023-12-16T17:30:32.866Z,5.69
2023-12-16T17:35:51.546Z,5.62
2023-12-16T17:41:10.308Z,5.59
2023-12-16T17:46:30.038Z,5.56
2023-12-16T17:57:08.464Z,5.48
2023-12-16T18:02:28.325Z,5.42
2023-12-16T18:13:06.115Z,5.35
2023-12-16T18:23:44.733Z,5.28
2023-12-16T18:29:04.228Z,5.21
2023-12-16T18:34:23.590Z,5.18
2023-12-16T18:39:42.766Z,5.15
2023-12-16T18:45:02.060Z,5.11
2023-12-16T18:55:40.148Z,5.01
2023-12-16T19:06:18.540Z,4.94
2023-12-16T19:11:38.221Z,4.9
2023-12-16T19:16:57.104Z,4.87
2023-12-16T19:22:16.703Z,4.81
2023-12-16T19:27:36.551Z,4.79
2023-12-16T19:38:15.114Z,4.73
2023-12-16T19:43:34.260Z,4.69
2023-12-16T19:48:54.279Z,4.66
2023-12-16T19:54:13.573Z,4.64
2023-12-16T19:59:32.814Z,4.63
2023-12-16T20:04:52.788Z,4.6
2023-12-16T20:10:11.930Z,4.59
2023-12-16T20:20:50.870Z,4.54
2023-12-16T20:37:21.267Z,4.46
2023-12-16T20:42:40.388Z,4.46
2023-12-16T20:47:59.707Z,4.42
2023-12-16T20:53:18.828Z,4.42
2023-12-16T20:58:38.241Z,4.38
2023-12-16T21:09:17.014Z,4.4
2023-12-16T21:14:36.153Z,4.36
2023-12-16T21:19:55.775Z,4.36
2023-12-16T21:25:14.564Z,4.33
2023-12-16T21:30:33.806Z,4.33
2023-12-16T21:35:53.795Z,4.32
2023-12-16T21:41:13.210Z,4.3
2023-12-16T21:51:52.115Z,4.25
2023-12-16T22:02:30.645Z,4.25
2023-12-16T22:07:50.400Z,4.21
2023-12-16T22:13:09.717Z,4.21
2023-12-16T22:18:29.072Z,4.19
2023-12-16T22:23:48.968Z,4.16
2023-12-16T22:29:06.709Z,4.12
2023-12-16T22:34:26.014Z,4.13
2023-12-16T22:39:44.492Z,4.1
2023-12-16T22:45:04.346Z,4.08
2023-12-16T22:50:24.089Z,4.06
2023-12-16T22:55:45.584Z,4.03
2023-12-16T23:01:02.769Z,4.01
2023-12-16T23:11:40.794Z,3.96
2023-12-16T23:27:39.100Z,3.91
2023-12-16T23:32:59.292Z,3.88
2023-12-16T23:38:18.738Z,3.86
2023-12-16T23:43:36.930Z,3.88
2023-12-16T23:48:56.424Z,3.84
2023-12-16T23:54:15.896Z,3.81
2023-12-16T23:59:34.955Z,3.77
